createdAt,value
2023-05-03T00:00:19.284Z,8.07
2023-05-03T00:02:47.806Z,8.63
2023-05-03T00:05:16.378Z,8.27
2023-05-03T00:07:45.560Z,8.18
2023-05-03T00:10:14.612Z,7.85
2023-05-03T00:12:43.891Z,7.30
2023-05-03T00:15:12.632Z,7.75
2023-05-03T00:17:40.780Z,7.57
2023-05-03T00:20:09.656Z,7.70
2023-05-03T00:22:38.030Z,6.70
2023-05-03T00:25:06.381Z,7.28
2023-05-03T00:27:34.282Z,6.07
2023-05-03T00:30:02.500Z,6.60
2023-05-03T00:32:30.712Z,7.12
2023-05-03T00:34:59.234Z,7.30
2023-05-03T00:37:27.504Z,7.47
2023-05-03T00:39:55.430Z,8.80
2023-05-03T00:42:23.408Z,8.40
2023-05-03T00:44:51.978Z,8.90
2023-05-03T00:47:21.398Z,9.23
2023-05-03T00:49:49.476Z,9.35
2023-05-03T00:52:17.905Z,10.80
2023-05-03T00:54:45.809Z,10.40
2023-05-03T00:57:13.676Z,9.90
2023-05-03T00:59:41.647Z,9.10
2023-05-03T01:02:09.707Z,8.85
2023-05-03T01:04:39.344Z,9.63
2023-05-03T01:07:33.391Z,8.68
2023-05-03T01:10:36.206Z,8.77
2023-05-03T01:13:13.290Z,9.38
2023-05-03T01:15:49.487Z,8.77
2023-05-03T01:18:28.264Z,9.48
2023-05-03T01:20:57.987Z,8.65
2023-05-03T01:23:34.655Z,9.20
2023-05-03T01:26:26.035Z,9.50
2023-05-03T01:28:54.130Z,9.88
2023-05-03T01:31:47.717Z,10.50
2023-05-03T01:34:18.392Z,9.35
2023-05-03T01:36:47.322Z,10.43
2023-05-03T01:39:26.114Z,10.10
2023-05-03T01:41:55.406Z,10.43
2023-05-03T01:44:24.862Z,9.52
2023-05-03T01:46:52.830Z,11.63
2023-05-03T01:49:20.748Z,11.00
2023-05-03T01:51:48.599Z,10.85
2023-05-03T01:54:17.554Z,10.73
2023-05-03T01:56:45.948Z,12.18
2023-05-03T01:59:13.874Z,11.32
2023-05-03T02:01:41.876Z,11.10
2023-05-03T02:04:09.905Z,10.98
2023-05-03T02:06:37.960Z,11.60
2023-05-03T02:09:05.984Z,13.32
2023-05-03T02:11:33.984Z,11.68
2023-05-03T02:14:01.870Z,11.52
2023-05-03T02:16:30.560Z,11.05
2023-05-03T02:19:00.756Z,11.70
2023-05-03T02:21:28.748Z,11.50
2023-05-03T02:23:56.819Z,11.02
2023-05-03T02:26:24.657Z,10.13
2023-05-03T02:28:52.625Z,10.32
2023-05-03T02:31:20.591Z,10.02
2023-05-03T02:33:48.444Z,10.32
2023-05-03T02:36:16.321Z,10.35
2023-05-03T02:38:44.309Z,9.98
2023-05-03T02:41:12.347Z,11.73
2023-05-03T02:43:40.378Z,11.48
2023-05-03T02:46:08.301Z,11.02
2023-05-03T02:48:36.132Z,12.32
2023-05-03T02:51:04.723Z,11.50
2023-05-03T02:53:32.789Z,12.05
2023-05-03T02:56:00.666Z,12.75
2023-05-03T02:58:28.672Z,11.55
2023-05-03T03:00:56.652Z,13.23
2023-05-03T03:03:24.486Z,12.68
2023-05-03T03:05:52.381Z,13.30
2023-05-03T03:08:20.313Z,12.25
2023-05-03T03:10:48.359Z,12.55
2023-05-03T03:13:16.302Z,12.45
2023-05-03T03:15:44.165Z,12.63
2023-05-03T03:18:12.200Z,13.07
2023-05-03T03:20:40.210Z,13.60
2023-05-03T03:23:08.651Z,11.93
2023-05-03T03:25:36.561Z,12.32
2023-05-03T03:28:04.404Z,12.52
2023-05-03T03:30:32.679Z,11.65
2023-05-03T03:33:00.690Z,12.65
2023-05-03T03:35:28.930Z,13.10
2023-05-03T03:37:56.803Z,11.93
2023-05-03T03:40:24.741Z,12.95
2023-05-03T03:42:52.544Z,13.05
2023-05-03T03:45:20.681Z,11.95
2023-05-03T03:47:48.572Z,12.25
2023-05-03T03:50:16.615Z,12.37
2023-05-03T03:52:44.482Z,11.65
2023-05-03T03:55:12.935Z,11.57
2023-05-03T03:57:40.875Z,12.73
2023-05-03T04:00:13.085Z,12.68
2023-05-03T04:02:41.322Z,12.05
2023-05-03T04:05:09.602Z,11.65
2023-05-03T04:07:37.534Z,12.13
2023-05-03T04:10:05.925Z,12.02
2023-05-03T04:12:35.382Z,11.60
2023-05-03T04:15:03.700Z,12.15
2023-05-03T04:17:31.665Z,11.82
2023-05-03T04:19:59.505Z,11.70
2023-05-03T04:22:27.452Z,11.30
2023-05-03T04:24:56.056Z,12.07
2023-05-03T04:27:24.066Z,11.07
2023-05-03T04:29:52.169Z,11.50
2023-05-03T04:32:24.449Z,12.32
2023-05-03T04:34:54.005Z,12.55
2023-05-03T04:37:23.683Z,12.25
2023-05-03T04:39:51.796Z,12.68
2023-05-03T04:42:19.790Z,12.02
2023-05-03T04:44:48.218Z,13.18
2023-05-03T04:47:16.169Z,13.05
2023-05-03T04:49:43.986Z,13.70
2023-05-03T04:52:12.073Z,13.90
2023-05-03T04:54:40.220Z,13.60
2023-05-03T04:57:08.497Z,13.45
2023-05-03T04:59:36.380Z,12.82
2023-05-03T05:02:04.373Z,12.77
2023-05-03T05:04:32.353Z,13.38
2023-05-03T05:07:00.838Z,13.77
2023-05-03T05:09:30.634Z,13.50
2023-05-03T05:11:58.788Z,13.07
2023-05-03T05:14:29.650Z,13.10
2023-05-03T05:16:57.875Z,12.60
2023-05-03T05:19:25.810Z,13.30
2023-05-03T05:21:54.102Z,13.05
2023-05-03T05:24:22.116Z,13.25
2023-05-03T05:26:50.467Z,12.65
2023-05-03T05:29:18.478Z,11.98
2023-05-03T05:31:46.493Z,12.35
2023-05-03T05:34:14.524Z,12.43
2023-05-03T05:36:42.484Z,11.25
2023-05-03T05:39:11.041Z,11.82
2023-05-03T05:41:39.035Z,11.23
2023-05-03T05:44:07.304Z,11.40
2023-05-03T05:46:35.273Z,11.23
2023-05-03T05:49:03.234Z,10.10
2023-05-03T05:51:33.110Z,11.40
2023-05-03T05:54:00.992Z,11.02
2023-05-03T05:56:28.975Z,12.15
2023-05-03T05:58:57.532Z,11.32
2023-05-03T06:01:25.527Z,11.68
2023-05-03T06:03:53.623Z,11.48
2023-05-03T06:06:21.560Z,11.75
2023-05-03T06:08:51.256Z,11.68
2023-05-03T06:11:19.662Z,12.70
2023-05-03T06:13:47.662Z,12.32
2023-05-03T06:16:15.617Z,11.65
2023-05-03T06:18:43.583Z,11.95
2023-05-03T06:21:12.674Z,12.98
2023-05-03T06:23:41.705Z,11.48
2023-05-03T06:26:10.082Z,13.75
2023-05-03T06:28:38.473Z,12.50
2023-05-03T06:31:06.601Z,12.10
2023-05-03T06:33:34.542Z,12.10
2023-05-03T06:36:02.948Z,10.88
2023-05-03T06:38:30.785Z,10.68
2023-05-03T06:40:58.684Z,10.82
2023-05-03T06:43:27.139Z,10.38
2023-05-03T06:45:55.148Z,11.07
2023-05-03T06:48:23.205Z,11.15
2023-05-03T06:50:52.066Z,11.20
2023-05-03T06:53:20.212Z,10.50
2023-05-03T06:55:48.332Z,10.95
2023-05-03T06:58:17.236Z,11.50
2023-05-03T07:00:45.157Z,10.40
2023-05-03T07:03:13.270Z,11.27
2023-05-03T07:05:42.025Z,10.95
2023-05-03T07:08:09.992Z,10.18
2023-05-03T07:10:37.960Z,9.98
2023-05-03T07:13:05.806Z,10.38
2023-05-03T07:15:33.812Z,10.60
2023-05-03T07:18:01.620Z,10.80
2023-05-03T07:20:29.728Z,11.18
2023-05-03T07:22:57.732Z,11.07
2023-05-03T07:25:25.657Z,11.07
2023-05-03T07:27:53.820Z,10.98
2023-05-03T07:30:22.107Z,10.23
2023-05-03T07:32:50.276Z,10.15
2023-05-03T07:35:18.659Z,10.00
2023-05-03T07:37:46.654Z,10.35
2023-05-03T07:40:14.616Z,10.30
2023-05-03T07:42:42.498Z,10.77
2023-05-03T07:45:11.014Z,10.00
2023-05-03T07:47:40.692Z,9.80
2023-05-03T07:50:09.163Z,10.10
2023-05-03T07:52:38.672Z,9.55
2023-05-03T07:55:08.197Z,10.50
2023-05-03T07:57:36.061Z,10.55
2023-05-03T08:00:06.854Z,11.90
2023-05-03T08:02:34.932Z,10.68
2023-05-03T08:05:03.156Z,9.55
2023-05-03T08:07:31.884Z,10.35
2023-05-03T08:10:00.385Z,9.90
2023-05-03T08:12:28.959Z,10.23
2023-05-03T08:14:57.842Z,9.57
2023-05-03T08:17:25.762Z,10.13
2023-05-03T08:19:53.734Z,10.30
2023-05-03T08:22:22.022Z,9.18
2023-05-03T08:24:50.493Z,10.13
2023-05-03T08:27:18.677Z,9.50
2023-05-03T08:29:46.677Z,10.60
2023-05-03T08:32:14.652Z,9.80
2023-05-03T08:34:42.800Z,11.15
2023-05-03T08:37:10.664Z,9.43
2023-05-03T08:39:38.582Z,9.75
2023-05-03T08:42:10.349Z,13.02
2023-05-03T08:44:39.591Z,10.93
2023-05-03T08:47:08.632Z,8.45
2023-05-03T08:49:37.849Z,9.30
2023-05-03T08:52:07.887Z,9.52
2023-05-03T08:54:35.828Z,9.50
2023-05-03T08:57:03.976Z,8.75
2023-05-03T08:59:31.842Z,8.70
2023-05-03T09:01:59.849Z,8.13
2023-05-03T09:04:35.962Z,8.65
2023-05-03T09:07:13.977Z,8.88
2023-05-03T09:09:42.469Z,10.30
2023-05-03T09:12:11.345Z,8.18
2023-05-03T09:14:48.737Z,7.72
2023-05-03T09:17:19.271Z,7.80
2023-05-03T09:19:57.623Z,7.32
2023-05-03T09:22:29.240Z,6.45
2023-05-03T09:24:59.812Z,7.62
2023-05-03T09:27:28.545Z,6.60
2023-05-03T09:29:56.962Z,7.05
2023-05-03T09:32:25.598Z,6.50
2023-05-03T09:35:10.418Z,6.70
2023-05-03T09:37:39.891Z,6.90
2023-05-03T09:40:12.904Z,6.40
2023-05-03T09:42:44.941Z,6.40
2023-05-03T09:45:13.156Z,6.95
2023-05-03T09:48:08.768Z,6.47
2023-05-03T09:50:38.001Z,6.32
2023-05-03T09:53:07.300Z,6.28
2023-05-03T09:55:40.812Z,6.20
2023-05-03T09:58:09.345Z,5.22
2023-05-03T10:00:41.726Z,5.18
2023-05-03T10:03:11.759Z,4.93
2023-05-03T10:05:52.717Z,4.95
2023-05-03T10:08:28.465Z,5.32
2023-05-03T10:10:56.570Z,5.18
2023-05-03T10:13:25.461Z,4.65
2023-05-03T10:16:06.781Z,5.12
2023-05-03T10:18:39.110Z,4.60
2023-05-03T10:21:15.851Z,4.68
2023-05-03T10:24:10.781Z,5.37
2023-05-03T10:26:38.676Z,4.70
2023-05-03T10:29:08.542Z,4.12
2023-05-03T10:31:49.683Z,4.22
2023-05-03T10:34:22.962Z,5.40
2023-05-03T10:36:53.840Z,4.55
2023-05-03T10:39:23.379Z,4.10
2023-05-03T10:42:10.560Z,4.12
2023-05-03T10:44:52.520Z,3.80
2023-05-03T10:47:25.423Z,3.62
2023-05-03T10:50:18.397Z,4.25
2023-05-03T10:52:46.429Z,4.10
2023-05-03T10:55:22.472Z,4.10
2023-05-03T10:57:51.699Z,4.03
2023-05-03T11:00:34.974Z,3.90
2023-05-03T11:03:25.041Z,4.10
2023-05-03T11:05:56.384Z,4.37
2023-05-03T11:08:27.327Z,4.43
2023-05-03T11:11:03.876Z,3.92
2023-05-03T11:13:31.935Z,3.80
2023-05-03T11:15:59.916Z,4.20
2023-05-03T11:18:28.910Z,4.50
2023-05-03T11:20:57.295Z,3.50
2023-05-03T11:23:32.840Z,4.22
2023-05-03T11:26:00.829Z,4.00
2023-05-03T11:28:28.884Z,3.15
2023-05-03T11:30:56.810Z,3.70
2023-05-03T11:33:25.170Z,3.83
2023-05-03T11:35:57.586Z,4.00
2023-05-03T11:38:25.707Z,4.80
2023-05-03T11:40:53.712Z,4.62
2023-05-03T11:43:21.805Z,4.10
2023-05-03T11:45:52.295Z,4.00
2023-05-03T11:48:20.632Z,4.12
2023-05-03T11:50:57.813Z,4.28
2023-05-03T11:53:27.098Z,4.25
2023-05-03T11:55:55.762Z,3.72
2023-05-03T11:58:27.670Z,4.60
2023-05-03T12:00:58.344Z,4.43
2023-05-03T12:03:31.835Z,4.03
2023-05-03T12:06:02.519Z,3.72
2023-05-03T12:08:37.920Z,3.70
2023-05-03T12:11:09.861Z,4.03
2023-05-03T12:13:40.686Z,3.70
2023-05-03T12:16:14.608Z,4.10
2023-05-03T12:19:05.258Z,3.58
2023-05-03T12:22:13.279Z,3.92
2023-05-03T12:24:45.096Z,3.92
2023-05-03T12:27:14.966Z,4.15
2023-05-03T12:29:42.999Z,3.78
2023-05-03T12:32:12.297Z,3.42
2023-05-03T12:34:41.838Z,3.80
2023-05-03T12:37:11.972Z,3.55
2023-05-03T12:39:40.781Z,4.50
2023-05-03T12:42:09.803Z,3.97
2023-05-03T12:44:43.024Z,3.80
2023-05-03T12:47:16.200Z,3.85
2023-05-03T12:49:52.271Z,3.80
2023-05-03T12:52:37.483Z,3.92
2023-05-03T12:55:11.145Z,3.87
2023-05-03T12:57:39.737Z,4.10
2023-05-03T13:00:14.660Z,4.22
2023-05-03T13:05:30.504Z,3.10
2023-05-03T13:08:09.085Z,3.67
2023-05-03T13:10:42.468Z,3.80
2023-05-03T13:13:10.866Z,4.18
2023-05-03T13:15:39.294Z,3.67
2023-05-03T13:18:07.992Z,3.85
2023-05-03T13:20:37.536Z,3.58
2023-05-03T13:23:06.031Z,3.85
2023-05-03T13:25:36.871Z,4.32
2023-05-03T13:28:05.172Z,3.90
2023-05-03T13:30:33.100Z,4.15
2023-05-03T13:33:01.053Z,4.07
2023-05-03T13:35:29.205Z,3.83
2023-05-03T13:37:57.267Z,3.90
2023-05-03T13:40:25.935Z,4.00
2023-05-03T13:42:53.872Z,3.30
2023-05-03T13:45:22.032Z,4.30
2023-05-03T13:48:13.261Z,3.87
2023-05-03T13:50:37.876Z,3.85
2023-05-03T13:53:05.893Z,4.55
2023-05-03T13:55:33.803Z,3.92
2023-05-03T13:58:01.660Z,4.37
2023-05-03T14:00:31.601Z,3.37
2023-05-03T14:03:00.299Z,3.78
2023-05-03T14:05:28.581Z,4.03
2023-05-03T14:07:57.074Z,3.58
2023-05-03T14:10:25.110Z,3.25
2023-05-03T14:12:54.258Z,3.83
2023-05-03T14:15:22.243Z,3.50
2023-05-03T14:17:50.446Z,3.22
2023-05-03T14:20:21.359Z,3.40
2023-05-03T14:22:49.393Z,3.33
2023-05-03T14:25:17.589Z,3.28
2023-05-03T14:27:45.517Z,2.67
2023-05-03T14:30:13.855Z,2.78
2023-05-03T14:32:41.861Z,2.95
2023-05-03T14:35:10.473Z,3.10
2023-05-03T14:37:38.626Z,3.20
2023-05-03T14:40:07.742Z,2.95
2023-05-03T14:42:36.171Z,3.17
2023-05-03T14:45:04.341Z,3.05
2023-05-03T14:47:32.700Z,3.35
2023-05-03T14:50:00.716Z,3.10
2023-05-03T14:52:29.248Z,3.33
2023-05-03T14:54:57.188Z,2.70
2023-05-03T14:57:25.397Z,2.60
2023-05-03T14:59:53.306Z,2.42
2023-05-03T15:02:21.244Z,2.90
2023-05-03T15:04:49.148Z,2.85
2023-05-03T15:07:17.154Z,2.60
2023-05-03T15:09:46.098Z,1.98
2023-05-03T15:12:14.091Z,2.47
2023-05-03T15:14:42.224Z,2.00
2023-05-03T15:17:10.142Z,2.00
2023-05-03T15:19:38.251Z,2.65
2023-05-03T15:22:06.205Z,2.47
2023-05-03T15:24:34.174Z,2.60
2023-05-03T15:27:04.177Z,2.25
2023-05-03T15:29:32.783Z,2.40
2023-05-03T15:32:00.899Z,2.58
2023-05-03T15:34:29.222Z,2.30
2023-05-03T15:36:57.430Z,2.28
2023-05-03T15:39:25.897Z,2.40
2023-05-03T15:41:53.785Z,2.60
2023-05-03T15:44:21.702Z,2.55
2023-05-03T15:46:49.793Z,2.28
2023-05-03T15:49:17.788Z,2.40
2023-05-03T15:51:45.713Z,2.10
2023-05-03T15:54:13.570Z,2.20
2023-05-03T15:56:41.528Z,2.12
2023-05-03T15:59:10.072Z,2.00
2023-05-03T16:01:38.596Z,2.75
2023-05-03T16:04:08.976Z,2.10
2023-05-03T16:06:36.965Z,2.10
2023-05-03T16:09:05.414Z,2.22
2023-05-03T16:11:33.433Z,2.50
2023-05-03T16:14:01.464Z,2.30
2023-05-03T16:16:29.563Z,2.08
2023-05-03T16:18:57.443Z,2.10
2023-05-03T16:21:25.379Z,2.67
2023-05-03T16:23:53.672Z,2.25
2023-05-03T16:26:21.528Z,2.03
2023-05-03T16:28:50.216Z,2.20
2023-05-03T16:31:18.384Z,2.10
2023-05-03T16:33:46.390Z,2.30
2023-05-03T16:36:14.568Z,2.25
2023-05-03T16:38:42.585Z,2.28
2023-05-03T16:41:10.585Z,2.58
2023-05-03T16:43:39.577Z,2.22
2023-05-03T16:46:07.962Z,2.25
2023-05-03T16:48:35.965Z,2.25
2023-05-03T16:51:04.034Z,2.50
2023-05-03T16:53:32.737Z,2.37
2023-05-03T16:56:01.226Z,2.28
2023-05-03T16:58:29.306Z,2.37
2023-05-03T17:00:57.551Z,2.17
2023-05-03T17:03:26.592Z,2.30
2023-05-03T17:05:55.146Z,2.50
2023-05-03T17:08:23.059Z,2.55
2023-05-03T17:10:51.343Z,2.50
2023-05-03T17:13:19.331Z,2.35
2023-05-03T17:15:47.648Z,2.05
2023-05-03T17:18:15.702Z,2.60
2023-05-03T17:20:44.329Z,2.50
2023-05-03T17:23:12.354Z,2.45
2023-05-03T17:25:40.349Z,2.45
2023-05-03T17:28:08.178Z,2.40
2023-05-03T17:30:36.278Z,2.70
2023-05-03T17:33:04.164Z,2.40
2023-05-03T17:35:32.100Z,2.53
2023-05-03T17:38:00.038Z,2.55
2023-05-03T17:40:27.970Z,2.33
2023-05-03T17:42:56.110Z,2.28
2023-05-03T17:45:26.498Z,2.15
2023-05-03T17:47:54.457Z,2.65
2023-05-03T17:50:22.352Z,2.35
2023-05-03T17:52:50.253Z,2.50
2023-05-03T17:55:18.538Z,2.40
2023-05-03T17:57:47.095Z,2.70
2023-05-03T18:00:18.451Z,2.70
2023-05-03T18:02:46.373Z,2.33
2023-05-03T18:05:15.231Z,2.20
2023-05-03T18:07:43.523Z,2.65
2023-05-03T18:10:15.920Z,2.10
2023-05-03T18:12:44.612Z,2.50
2023-05-03T18:15:12.975Z,2.15
2023-05-03T18:17:40.915Z,2.70
2023-05-03T18:20:10.153Z,2.80
2023-05-03T18:22:38.824Z,2.35
2023-05-03T18:25:08.591Z,2.47
2023-05-03T18:27:38.581Z,2.50
2023-05-03T18:30:07.866Z,2.50
2023-05-03T18:32:36.260Z,2.55
2023-05-03T18:35:04.950Z,2.70
2023-05-03T18:37:32.910Z,2.80
2023-05-03T18:40:00.914Z,2.85
2023-05-03T18:42:29.152Z,3.08
2023-05-03T18:44:57.075Z,2.53
2023-05-03T18:47:25.262Z,2.10
2023-05-03T18:49:54.069Z,2.65
2023-05-03T18:52:22.491Z,2.42
2023-05-03T18:54:51.158Z,2.60
2023-05-03T18:57:20.118Z,2.37
2023-05-03T19:00:07.729Z,2.50
2023-05-03T19:02:36.549Z,2.65
2023-05-03T19:05:04.600Z,2.70
2023-05-03T19:07:32.561Z,2.72
2023-05-03T19:10:00.546Z,2.70
2023-05-03T19:12:28.747Z,2.65
2023-05-03T19:14:56.675Z,2.90
2023-05-03T19:17:24.596Z,2.70
2023-05-03T19:19:52.812Z,2.65
2023-05-03T19:22:20.773Z,2.87
2023-05-03T19:24:49.403Z,2.45
2023-05-03T19:27:18.810Z,2.83
2023-05-03T19:29:46.878Z,2.97
2023-05-03T19:32:14.810Z,2.50
2023-05-03T19:34:43.191Z,2.78
2023-05-03T19:37:11.134Z,2.67
2023-05-03T19:39:39.094Z,2.55
2023-05-03T19:42:07.129Z,2.37
2023-05-03T19:44:35.395Z,2.87
2023-05-03T19:47:03.319Z,2.25
2023-05-03T19:49:31.436Z,2.62
2023-05-03T19:51:59.372Z,2.87
2023-05-03T19:54:27.479Z,2.90
2023-05-03T19:56:56.629Z,2.80
2023-05-03T19:59:24.666Z,3.17
2023-05-03T20:01:52.898Z,2.70
2023-05-03T20:04:20.893Z,2.92
2023-05-03T20:06:48.949Z,2.90
2023-05-03T20:09:16.934Z,3.08
2023-05-03T20:11:44.839Z,3.08
2023-05-03T20:14:12.999Z,3.20
2023-05-03T20:16:41.247Z,3.17
2023-05-03T20:19:09.243Z,2.67
2023-05-03T20:21:37.133Z,3.17
2023-05-03T20:24:06.174Z,3.10
2023-05-03T20:26:34.028Z,3.17
2023-05-03T20:29:02.227Z,3.37
2023-05-03T20:31:30.183Z,2.95
2023-05-03T20:33:58.316Z,3.03
2023-05-03T20:36:26.365Z,3.12
2023-05-03T20:38:56.044Z,3.15
2023-05-03T20:41:24.522Z,3.33
2023-05-03T20:43:53.231Z,3.50
2023-05-03T20:46:21.252Z,3.62
2023-05-03T20:48:49.372Z,3.72
2023-05-03T20:51:17.314Z,3.55
2023-05-03T20:53:45.524Z,4.68
2023-05-03T20:56:13.831Z,4.07
2023-05-03T20:58:41.862Z,4.05
2023-05-03T21:01:09.795Z,3.80
2023-05-03T21:03:37.783Z,4.07
2023-05-03T21:06:08.048Z,3.78
2023-05-03T21:08:36.333Z,3.97
2023-05-03T21:11:05.495Z,4.57
2023-05-03T21:13:36.868Z,4.32
2023-05-03T21:16:04.998Z,4.18
2023-05-03T21:18:33.162Z,4.32
2023-05-03T21:21:01.130Z,4.22
2023-05-03T21:23:29.074Z,4.18
2023-05-03T21:25:57.048Z,4.12
2023-05-03T21:28:25.095Z,4.75
2023-05-03T21:30:55.851Z,4.60
2023-05-03T21:33:24.085Z,4.65
2023-05-03T21:35:52.036Z,4.45
2023-05-03T21:38:19.923Z,4.97
2023-05-03T21:40:48.540Z,4.85
2023-05-03T21:43:16.630Z,5.57
2023-05-03T21:45:45.319Z,4.75
2023-05-03T21:48:13.866Z,5.15
2023-05-03T21:50:41.853Z,4.45
2023-05-03T21:53:09.785Z,5.00
2023-05-03T21:55:37.681Z,4.90
2023-05-03T21:58:06.144Z,5.20
2023-05-03T22:00:37.306Z,5.18
2023-05-03T22:03:05.374Z,5.20
2023-05-03T22:05:33.669Z,5.47
2023-05-03T22:08:02.438Z,5.72
2023-05-03T22:10:30.352Z,5.78
2023-05-03T22:12:58.329Z,5.15
2023-05-03T22:15:26.219Z,4.93
2023-05-03T22:17:54.185Z,5.37
2023-05-03T22:20:22.353Z,6.53
2023-05-03T22:22:50.291Z,5.68
2023-05-03T22:25:30.070Z,5.25
2023-05-03T22:27:59.387Z,5.50
2023-05-03T22:30:27.508Z,5.80
2023-05-03T22:32:55.505Z,5.35
2023-05-03T22:35:23.616Z,5.15
2023-05-03T22:37:51.506Z,4.90
2023-05-03T22:40:19.338Z,6.22
2023-05-03T22:42:47.154Z,5.85
2023-05-03T22:45:15.255Z,5.75
2023-05-03T22:47:44.715Z,5.37
2023-05-03T22:50:12.812Z,5.18
2023-05-03T22:52:40.788Z,5.45
2023-05-03T22:55:09.660Z,5.18
2023-05-03T22:57:37.914Z,5.60
2023-05-03T23:00:06.508Z,5.93
2023-05-03T23:02:35.144Z,5.57
2023-05-03T23:05:03.160Z,6.35
2023-05-03T23:07:31.638Z,5.60
2023-05-03T23:10:04.506Z,5.55
2023-05-03T23:12:32.632Z,5.82
2023-05-03T23:15:00.998Z,5.47
2023-05-03T23:17:29.044Z,5.78
2023-05-03T23:19:57.099Z,5.32
2023-05-03T23:22:25.070Z,5.53
2023-05-03T23:24:52.896Z,5.57
2023-05-03T23:27:20.787Z,5.70
2023-05-03T23:29:49.501Z,6.12
2023-05-03T23:32:17.877Z,5.68
2023-05-03T23:34:46.229Z,6.15
2023-05-03T23:37:14.129Z,6.12
2023-05-03T23:39:46.059Z,5.87
2023-05-03T23:42:14.252Z,5.82
2023-05-03T23:44:54.591Z,6.45
2023-05-03T23:47:23.589Z,6.07
2023-05-03T23:49:51.535Z,6.05
2023-05-03T23:52:21.236Z,5.87
2023-05-03T23:54:49.286Z,6.12
2023-05-03T23:57:17.484Z,5.82
2023-05-03T23:59:45.630Z,6.30
